aerodrome LA FERTE GAUCHER, LFFG, pilots, aviation, flying | pilotspace.eu

LA FERTE GAUCHER

aerodrome LA FERTE GAUCHER

ICAO/ID: LFFG
France
web: Réservé au parachutisme et aux avions de servitude
show on the map

LFPM 302300Z AUTO VRB02KT 9999 BKN038 OVC049 M00/M01 Q0982

TAF LFPG 301700Z 3018/3124 27015KT 9999 BKN015 BECMG 3018/3020 22005KT TEMPO 3021/3108 4000 -SHRASN BKN011 PROB30 TEMPO 3021/3108 3000 -SHSN BKN008 SCT020TCU BECMG 3103/3105 22015KT PROB40 TEMPO 3109/3115 4000 -SHRASN BKN008 SCT020CB PROB30 TEMPO 3111/3115 25015G25KT 4000 -TSGSRA SCT015CB BECMG 3117/3119 BKN013 TX04/3115Z TNM01/3101Z

general information

altitude: 538 ft
latitude: 48 45 21 N
longitude: 003 16 36 E

traffic information

RWY: 05/23: 3,609 ft (1,100 m) — surface unknown
report copyright

Online pilot logbook: free for each registered member! http://www.pilotlogbook.eu


last flights

RECENTLY ADDED

Etna

Etna

10/01/2015 (30x)

lukin

Vianoce 2014

Vianoce 2014

09/01/2015 (4x)

Jenki

Sitno December 2014

Sitno December 2014

09/01/2015 (11x)

Jenki

ULRBK fotos

ULRBK fotos

25/12/2014 (7x)

northwolf

The Cheyenne

The Cheyenne

21/11/2014 (31x)

lukin

Beauty Kunovice

Beauty Kunovice

14/10/2014 (17x)

Jenki

CIAF 2014

CIAF 2014

07/09/2014 (26x)

Jenki

Virus start na bramkę

Virus start na bramkę ...

04/09/2014 (4x)

oslkj